createdAt,value
2019-06-01T00:04:52.296Z,16.00
2019-06-01T00:09:55.880Z,16.00
2019-06-01T00:14:59.847Z,15.90
2019-06-01T00:20:05.650Z,16.00
2019-06-01T00:25:09.424Z,15.80
2019-06-01T00:30:26.715Z,15.80
2019-06-01T00:35:19.994Z,15.70
2019-06-01T00:40:23.644Z,15.70
2019-06-01T00:45:27.323Z,15.70
2019-06-01T00:50:31.313Z,15.70
2019-06-01T00:55:35.333Z,15.60
2019-06-01T01:00:43.576Z,15.50
2019-06-01T01:05:44.755Z,15.30
2019-06-01T01:10:49.107Z,15.30
2019-06-01T01:15:53.519Z,15.10
2019-06-01T01:20:57.208Z,15.20
2019-06-01T01:26:00.789Z,14.90
2019-06-01T01:31:13.474Z,14.70
2019-06-01T01:36:10.499Z,14.80
2019-06-01T01:41:14.150Z,14.90
2019-06-01T01:46:17.879Z,14.90
2019-06-01T01:51:21.483Z,14.80
2019-06-01T01:56:25.164Z,14.80
2019-06-01T02:01:28.769Z,14.90
2019-06-01T02:06:32.437Z,14.90
2019-06-01T02:11:36.032Z,14.90
2019-06-01T02:16:39.978Z,14.80
2019-06-01T02:21:43.567Z,14.70
2019-06-01T02:26:47.206Z,14.60
2019-06-01T02:31:50.871Z,14.40
2019-06-01T02:36:56.342Z,14.50
2019-06-01T02:42:01.267Z,14.60
2019-06-01T02:47:06.349Z,14.50
2019-06-01T02:52:10.074Z,14.40
2019-06-01T02:57:13.729Z,14.40
2019-06-01T03:02:18.400Z,14.20
2019-06-01T03:07:22.453Z,14.10
2019-06-01T03:12:28.014Z,14.10
2019-06-01T03:17:35.106Z,14.10
2019-06-01T03:22:42.092Z,14.20
2019-06-01T03:27:48.777Z,14.30
2019-06-01T03:32:52.500Z,14.30
2019-06-01T03:37:56.166Z,14.30
2019-06-01T03:43:00.196Z,14.40
2019-06-01T03:48:04.662Z,14.40
2019-06-01T03:53:08.350Z,14.40
2019-06-01T03:58:11.949Z,14.30
2019-06-01T04:03:15.534Z,14.30
2019-06-01T04:08:19.515Z,14.30
2019-06-01T04:13:23.627Z,14.00
2019-06-01T04:18:27.344Z,14.00
2019-06-01T04:23:30.935Z,14.20
2019-06-01T04:28:34.685Z,14.20
2019-06-01T04:33:38.409Z,14.30
2019-06-01T04:38:42.446Z,14.40
2019-06-01T04:43:46.162Z,14.70
2019-06-01T04:48:50.106Z,14.60
2019-06-01T04:53:53.697Z,14.60
2019-06-01T04:58:57.689Z,14.70
2019-06-01T05:04:01.509Z,14.90
2019-06-01T05:09:07.512Z,15.00
2019-06-01T05:14:11.605Z,15.10
2019-06-01T05:19:16.571Z,15.30
2019-06-01T05:24:20.821Z,15.50
2019-06-01T05:29:24.547Z,15.80
2019-06-01T05:34:28.221Z,16.10
2019-06-01T05:39:32.189Z,16.40
2019-06-01T05:44:35.857Z,16.80
2019-06-01T05:49:39.587Z,17.10
2019-06-01T05:54:43.196Z,17.40
2019-06-01T05:59:47.235Z,17.60
2019-06-01T06:04:53.514Z,17.90
2019-06-01T06:09:56.076Z,18.20
2019-06-01T06:14:59.721Z,18.50
2019-06-01T06:20:04.249Z,18.60
2019-06-01T06:25:08.097Z,18.90
2019-06-01T06:30:12.815Z,18.80
2019-06-01T06:35:17.408Z,18.90
2019-06-01T06:40:22.142Z,19.00
2019-06-01T06:45:25.832Z,19.10
2019-06-01T06:50:30.075Z,19.40
2019-06-01T06:55:34.699Z,19.60
2019-06-01T07:00:38.350Z,19.90
2019-06-01T07:05:42.097Z,20.10
2019-06-01T07:10:45.755Z,20.20
2019-06-01T07:15:49.357Z,20.40
2019-06-01T07:20:53.127Z,20.40
2019-06-01T07:25:56.865Z,20.60
2019-06-01T07:31:00.505Z,20.80
2019-06-01T07:36:04.225Z,21.10
2019-06-01T07:41:08.112Z,21.40
2019-06-01T07:46:12.100Z,21.70
2019-06-01T07:51:15.853Z,21.90
2019-06-01T07:56:20.431Z,22.30
2019-06-01T08:01:25.775Z,22.50
2019-06-01T08:06:30.914Z,22.80
2019-06-01T08:11:35.300Z,22.70
2019-06-01T08:16:39.088Z,22.90
2019-06-01T08:21:42.839Z,22.90
2019-06-01T08:26:46.530Z,22.70
2019-06-01T08:31:50.283Z,23.30
2019-06-01T08:36:54.296Z,23.40
2019-06-01T08:41:58.226Z,23.80
2019-06-01T08:47:01.887Z,24.00
2019-06-01T08:52:06.226Z,24.40
2019-06-01T08:57:09.873Z,24.80
2019-06-01T09:02:13.530Z,24.60
2019-06-01T09:07:17.118Z,24.60
2019-06-01T09:12:20.717Z,24.70
2019-06-01T09:17:25.346Z,24.90
2019-06-01T09:22:48.487Z,25.20
2019-06-01T09:27:52.321Z,25.70
2019-06-01T09:32:55.961Z,26.30
2019-06-01T09:37:59.546Z,26.50
2019-06-01T09:43:03.778Z,26.40
2019-06-01T09:48:07.436Z,26.60
2019-06-01T09:53:11.162Z,26.90
2019-06-01T09:58:14.848Z,26.30
2019-06-01T10:03:18.513Z,26.80
2019-06-01T10:08:22.158Z,27.10
2019-06-01T10:13:25.892Z,27.60
2019-06-01T10:18:30.858Z,28.10
2019-06-01T10:23:34.749Z,28.20
2019-06-01T10:28:39.826Z,28.30
2019-06-01T10:33:43.554Z,27.80
2019-06-01T10:38:47.151Z,27.90
2019-06-01T10:43:50.816Z,28.40
2019-06-01T10:48:54.397Z,28.60
2019-06-01T10:53:57.982Z,28.50
2019-06-01T10:59:02.037Z,28.60
2019-06-01T11:04:05.771Z,28.40
2019-06-01T11:09:10.375Z,29.00
2019-06-01T11:14:14.035Z,29.20
2019-06-01T11:19:17.705Z,29.40
2019-06-01T11:24:23.492Z,29.30
2019-06-01T11:29:27.213Z,29.40
2019-06-01T11:34:30.872Z,29.50
2019-06-01T11:39:34.479Z,30.10
2019-06-01T11:44:38.694Z,30.20
2019-06-01T11:49:42.837Z,30.40
2019-06-01T11:54:46.446Z,30.40
2019-06-01T11:59:51.728Z,30.40
2019-06-01T12:04:55.770Z,30.60
2019-06-01T12:09:59.357Z,30.90
2019-06-01T12:15:03.160Z,31.00
2019-06-01T12:20:07.687Z,30.80
2019-06-01T12:25:11.802Z,31.00
2019-06-01T12:30:16.489Z,31.00
2019-06-01T12:35:20.225Z,31.00
2019-06-01T12:40:23.961Z,30.80
2019-06-01T12:45:27.689Z,31.10
2019-06-01T12:50:31.412Z,31.50
2019-06-01T12:55:35.072Z,31.30
2019-06-01T13:00:40.293Z,31.60
2019-06-01T13:05:44.112Z,31.50
2019-06-01T13:10:48.086Z,31.80
2019-06-01T13:15:51.806Z,31.10
2019-06-01T13:20:55.462Z,31.20
2019-06-01T13:25:59.475Z,31.50
2019-06-01T13:31:03.145Z,31.90
2019-06-01T13:36:06.807Z,32.00
2019-06-01T13:41:10.454Z,31.70
2019-06-01T13:46:14.438Z,32.00
2019-06-01T13:51:18.097Z,32.00
2019-06-01T13:56:22.023Z,31.80
2019-06-01T14:01:25.630Z,32.00
2019-06-01T14:06:29.381Z,31.80
2019-06-01T14:11:32.973Z,31.60
2019-06-01T14:16:36.916Z,31.80
2019-06-01T14:21:40.507Z,31.80
2019-06-01T14:26:44.165Z,32.10
2019-06-01T14:31:48.428Z,31.90
2019-06-01T14:36:52.693Z,32.00
2019-06-01T14:41:57.606Z,32.10
2019-06-01T14:47:05.414Z,32.20
2019-06-01T14:52:06.678Z,32.30
2019-06-01T14:57:10.344Z,32.00
2019-06-01T15:02:14.017Z,31.90
2019-06-01T15:07:17.670Z,31.80
2019-06-01T15:12:21.322Z,31.40
2019-06-01T15:17:25.295Z,31.20
2019-06-01T15:22:29.202Z,31.30
2019-06-01T15:27:32.801Z,30.60
2019-06-01T15:32:36.758Z,30.90
2019-06-01T15:37:40.816Z,30.90
2019-06-01T15:42:44.471Z,30.70
2019-06-01T15:47:48.080Z,30.70
2019-06-01T15:52:52.942Z,31.00
2019-06-01T15:57:56.621Z,30.90
2019-06-01T16:03:01.145Z,30.50
2019-06-01T16:08:05.155Z,31.00
2019-06-01T16:13:08.738Z,31.00
2019-06-01T16:18:12.400Z,30.80
2019-06-01T16:23:16.385Z,30.20
2019-06-01T16:28:20.349Z,29.90
2019-06-01T16:33:23.931Z,29.90
2019-06-01T16:38:27.626Z,30.20
2019-06-01T16:43:31.657Z,29.90
2019-06-01T16:48:35.737Z,30.10
2019-06-01T16:53:39.738Z,29.80
2019-06-01T16:58:43.450Z,29.50
2019-06-01T17:03:48.814Z,29.70
2019-06-01T17:08:52.473Z,29.50
2019-06-01T17:13:56.617Z,29.70
2019-06-01T17:19:01.047Z,29.00
2019-06-01T17:24:06.031Z,29.40
2019-06-01T17:29:10.097Z,29.10
2019-06-01T17:34:14.182Z,29.30
2019-06-01T17:39:18.296Z,29.30
2019-06-01T17:44:21.962Z,29.10
2019-06-01T17:49:25.695Z,29.00
2019-06-01T17:54:30.917Z,28.80
2019-06-01T17:59:34.931Z,28.70
2019-06-01T18:04:38.579Z,28.60
2019-06-01T18:09:42.500Z,28.60
2019-06-01T18:14:46.157Z,28.40
2019-06-01T18:19:49.745Z,28.40
2019-06-01T18:24:53.476Z,28.10
2019-06-01T18:29:57.221Z,28.00
2019-06-01T18:35:00.823Z,27.80
2019-06-01T18:40:08.031Z,27.60
2019-06-01T18:45:11.925Z,27.60
2019-06-01T18:50:17.536Z,27.10
2019-06-01T18:55:21.778Z,26.30
2019-06-01T19:00:25.499Z,25.70
2019-06-01T19:05:29.150Z,25.30
2019-06-01T19:10:33.197Z,25.00
2019-06-01T19:15:36.869Z,24.40
2019-06-01T19:20:40.545Z,24.10
2019-06-01T19:25:44.210Z,23.80
2019-06-01T19:30:47.952Z,23.30
2019-06-01T19:35:53.265Z,23.10
2019-06-01T19:40:56.933Z,23.00
2019-06-01T19:46:00.594Z,22.80
2019-06-01T19:51:04.322Z,22.50
2019-06-01T19:56:08.785Z,22.10
2019-06-01T20:01:14.115Z,21.90
2019-06-01T20:06:18.936Z,21.80
2019-06-01T20:11:22.620Z,21.80
2019-06-01T20:16:26.350Z,21.70
2019-06-01T20:21:29.937Z,21.70
2019-06-01T20:26:40.571Z,21.70
2019-06-01T20:31:39.062Z,21.70
2019-06-01T20:36:42.673Z,21.70
2019-06-01T20:41:46.669Z,21.20
2019-06-01T20:46:50.332Z,21.00
2019-06-01T20:51:54.195Z,21.00
2019-06-01T20:56:58.623Z,21.10
2019-06-01T21:02:02.354Z,21.00
2019-06-01T21:07:06.079Z,20.90
2019-06-01T21:12:09.777Z,20.90
2019-06-01T21:17:14.341Z,20.80
2019-06-01T21:22:18.533Z,20.70
2019-06-01T21:27:22.700Z,20.40
2019-06-01T21:32:26.422Z,20.40
2019-06-01T21:37:30.055Z,20.30
2019-06-01T21:42:38.177Z,20.30
2019-06-01T21:47:39.065Z,20.40
2019-06-01T21:52:42.796Z,20.50
2019-06-01T21:57:46.376Z,20.50
2019-06-01T22:02:50.465Z,20.40
2019-06-01T22:07:54.442Z,20.30
2019-06-01T22:12:58.038Z,19.90
2019-06-01T22:18:02.163Z,19.80
2019-06-01T22:23:05.886Z,19.90
2019-06-01T22:28:09.574Z,19.90
2019-06-01T22:33:13.162Z,19.70
2019-06-01T22:38:16.954Z,19.50
2019-06-01T22:43:36.704Z,19.30
2019-06-01T22:48:26.675Z,19.20
2019-06-01T22:53:30.365Z,19.00
2019-06-01T22:58:34.332Z,18.80
2019-06-01T23:03:37.980Z,18.80
2019-06-01T23:08:41.669Z,18.70
2019-06-01T23:13:53.384Z,18.60
2019-06-01T23:18:53.818Z,18.50
2019-06-01T23:23:57.740Z,18.40
2019-06-01T23:29:01.335Z,18.30
2019-06-01T23:34:05.176Z,18.20
2019-06-01T23:39:08.914Z,18.20
2019-06-01T23:44:12.941Z,18.20
2019-06-01T23:49:16.626Z,18.20
2019-06-01T23:54:20.280Z,18.10
2019-06-01T23:59:24.317Z,17.90
